.
WxDataArchive / Data Records for 2008-07-26
2008-07-25 July 2008 2008-07-27

Data Records for Saturday, 26 July 2008

Time	Temp	Chill	HIndex	Humid	Dewpt	 Wind 	HiWind	WindDir	Rain 	Barom 
-----	----	-----	------	-----	-----	------	------	-------	-----	----- 
00:00	70.8	70.8	70.8	82	65.0	0	0	---	0.00	29.910 
00:05	70.8	70.8	70.8	82	65.0	0	1	248	0.00	29.905 
00:10	70.6	70.6	70.6	82	64.8	0	0	---	0.00	29.906 
00:15	70.6	70.6	70.6	83	65.2	0	0	---	0.00	29.903 
00:20	70.4	70.4	70.4	83	65.0	0	0	---	0.00	29.906 
00:25	70.3	70.3	70.3	83	64.9	0	1	248	0.00	29.907 
00:30	70.3	70.3	70.3	84	65.2	0	1	248	0.00	29.907 
00:35	70.1	70.1	70.1	84	65.0	0	0	---	0.00	29.904 
00:40	69.9	69.9	69.9	84	64.8	0	1	248	0.00	29.903 
00:45	69.9	69.9	69.9	85	65.2	0	0	---	0.00	29.902 
00:50	69.8	69.8	69.8	85	65.1	0	0	---	0.00	29.901 
00:55	69.6	69.6	69.6	86	65.2	0	0	---	0.00	29.900 
01:00	69.4	69.4	69.4	86	65.0	0	0	---	0.00	29.899 
01:05	69.4	69.4	69.4	87	65.4	0	1	248	0.00	29.898 
01:10	69.4	69.4	69.4	87	65.4	0	0	---	0.00	29.899 
01:15	69.4	69.4	69.4	88	65.7	0	0	---	0.00	29.898 
01:20	69.4	69.4	69.4	88	65.7	0	2	248	0.00	29.898 
01:25	69.4	69.4	69.4	88	65.7	0	0	---	0.00	29.900 
01:30	69.4	69.4	69.4	89	66.0	0	0	---	0.00	29.901 
01:35	69.4	69.4	69.4	89	66.0	0	0	---	0.00	29.901 
01:40	69.4	69.4	69.4	89	66.0	0	0	---	0.00	29.902 
01:45	69.6	69.6	69.6	90	66.5	0	0	---	0.00	29.904 
01:50	69.9	69.9	69.9	90	66.8	0	1	248	0.00	29.903 
01:55	69.9	69.9	69.9	90	66.8	0	1	248	0.00	29.902 
02:00	69.9	69.9	69.9	90	66.8	0	0	---	0.00	29.900 
02:05	70.1	70.1	70.1	90	67.0	0	0	---	0.00	29.899 
02:10	70.1	70.1	70.1	90	67.0	0	1	248	0.00	29.898 
02:15	70.1	70.1	70.1	90	67.0	0	0	---	0.00	29.898 
02:20	70.1	70.1	70.1	90	67.0	0	0	---	0.00	29.897 
02:25	70.1	70.1	70.1	90	67.0	0	0	---	0.00	29.897 
02:30	69.9	69.9	69.9	90	66.8	0	1	248	0.00	29.897 
02:35	70.1	70.1	70.1	91	67.3	0	1	248	0.00	29.896 
02:40	70.1	70.1	70.1	91	67.3	0	1	248	0.00	29.896 
02:45	70.3	70.3	70.3	91	67.5	0	1	248	0.00	29.888 
02:50	70.3	70.3	70.3	91	67.5	0	1	248	0.00	29.887 
02:55	70.4	70.4	70.4	91	67.6	0	1	248	0.00	29.885 
03:00	70.4	70.4	70.4	91	67.6	0	1	248	0.00	29.884 
03:05	70.4	70.4	70.4	91	67.6	0	1	248	0.00	29.883 
03:10	70.6	70.6	70.6	91	67.8	0	1	248	0.00	29.884 
03:15	70.6	70.6	70.6	91	67.8	0	1	248	0.00	29.883 
03:20	70.6	70.6	70.6	91	67.8	0	1	248	0.00	29.882 
03:25	70.6	70.6	70.6	91	67.8	0	1	248	0.00	29.883 
03:30	70.6	70.6	70.6	91	67.8	0	1	248	0.00	29.882 
03:35	70.4	70.4	70.4	91	67.6	0	1	248	0.00	29.882 
03:40	70.4	70.4	70.4	91	67.6	0	1	248	0.00	29.882 
03:45	70.4	70.4	70.4	91	67.6	0	1	248	0.00	29.881 
03:50	70.3	70.3	70.3	91	67.5	0	1	248	0.00	29.880 
03:55	70.3	70.3	70.3	92	67.9	0	0	---	0.00	29.880 
04:00	70.4	70.4	70.4	92	68.0	0	0	---	0.00	29.880 
04:05	70.4	70.4	70.4	92	68.0	0	1	248	0.00	29.882 
04:10	70.4	70.4	70.4	92	68.0	0	1	248	0.00	29.882 
04:15	70.3	70.3	70.3	92	67.9	0	1	248	0.00	29.881 
04:20	70.3	70.3	70.3	92	67.9	0	1	248	0.00	29.881 
04:25	70.3	70.3	70.3	92	67.9	0	1	248	0.00	29.882 
04:30	70.3	70.3	70.3	92	67.9	0	1	248	0.00	29.883 
04:35	70.3	70.3	70.3	92	67.9	0	1	248	0.00	29.883 
04:40	70.3	70.3	70.3	92	67.9	0	1	248	0.00	29.885 
04:45	70.3	70.3	70.3	92	67.9	0	1	248	0.00	29.883 
04:50	70.3	70.3	70.3	92	67.9	0	1	248	0.00	29.885 
04:55	70.3	70.3	70.3	92	67.9	0	1	248	0.00	29.886 
05:00	70.4	70.4	70.4	92	68.0	0	2	248	0.00	29.884 
05:05	70.4	70.4	70.4	92	68.0	0	1	248	0.00	29.881 
05:10	70.6	70.6	70.6	92	68.2	0	2	248	0.00	29.881 
05:15	70.6	70.6	70.6	92	68.2	0	2	248	0.00	29.879 
05:20	70.6	70.6	70.6	92	68.2	0	1	248	0.00	29.879 
05:25	70.6	70.6	70.6	92	68.2	0	2	248	0.00	29.876 
05:30	70.8	70.8	70.8	92	68.4	0	2	248	0.00	29.877 
05:35	70.8	70.8	70.8	92	68.4	0	2	248	0.00	29.878 
05:40	70.8	70.8	70.8	92	68.4	0	2	248	0.00	29.879 
05:45	70.8	70.8	70.8	92	68.4	0	3	248	0.00	29.878 
05:50	70.9	70.9	70.9	92	68.5	0	2	248	0.00	29.876 
05:55	70.9	70.9	70.9	92	68.5	0	1	248	0.00	29.879 
06:00	70.9	70.9	70.9	92	68.5	0	1	248	0.00	29.883 
06:05	71.1	71.1	71.1	92	68.7	0	1	248	0.00	29.889 
06:10	71.1	71.1	71.1	92	68.7	0	1	248	0.00	29.895 
06:15	71.1	71.1	71.1	91	68.3	0	1	248	0.00	29.892 
06:20	71.3	71.3	71.3	91	68.5	0	2	248	0.00	29.887 
06:25	71.3	71.3	71.3	91	68.5	0	1	248	0.00	29.883 
06:30	71.3	71.3	71.3	91	68.5	0	2	248	0.00	29.871 
06:35	71.5	71.5	71.5	91	68.7	0	2	248	0.00	29.866 
06:40	71.5	71.5	71.5	91	68.7	0	3	248	0.00	29.864 
06:45	71.5	71.5	71.5	91	68.7	0	2	248	0.00	29.873 
06:50	71.5	71.5	71.5	91	68.7	0	2	248	0.00	29.870 
06:55	71.6	71.6	71.6	91	68.8	0	1	248	0.00	29.873 
07:00	71.6	71.6	71.6	91	68.8	0	2	248	0.00	29.879 
07:05	71.8	71.8	71.8	91	69.0	0	1	248	0.00	29.880 
07:10	72.0	72.0	72.0	90	68.9	0	1	248	0.00	29.880 
07:15	72.1	72.1	72.1	90	69.0	0	2	248	0.00	29.880 
07:20	72.1	72.1	72.1	89	68.7	0	1	248	0.00	29.881 
07:25	72.1	72.1	72.1	89	68.7	0	2	248	0.00	29.882 
07:30	72.1	72.1	72.1	89	68.7	0	2	248	0.00	29.884 
07:35	72.1	72.1	72.1	89	68.7	0	2	248	0.00	29.882 
07:40	72.1	72.1	72.1	89	68.7	0	1	248	0.00	29.881 
07:45	72.3	72.3	72.3	89	68.9	0	1	248	0.00	29.881 
07:50	72.5	72.5	72.5	89	69.1	0	2	248	0.00	29.881 
07:55	72.7	72.7	72.7	89	69.3	0	2	248	0.00	29.881 
08:00	73.0	73.0	73.0	88	69.2	1	2	248	0.00	29.881 
08:05	73.2	73.2	73.2	88	69.4	0	2	248	0.00	29.884 
08:10	73.2	73.2	73.2	87	69.1	0	1	248	0.00	29.884 
08:15	73.2	73.2	73.2	87	69.1	0	1	248	0.00	29.887 
08:20	73.2	73.2	73.2	87	69.1	0	2	248	0.00	29.888 
08:25	73.2	73.2	73.2	87	69.1	0	2	248	0.00	29.887 
08:30	73.3	73.3	73.3	87	69.2	0	2	248	0.00	29.887 
08:35	73.5	73.5	73.5	87	69.4	0	2	248	0.00	29.886 
08:40	73.9	73.9	73.9	87	69.8	0	1	248	0.00	29.886 
08:45	74.2	74.2	74.2	86	69.7	0	2	248	0.00	29.887 
08:50	74.4	74.4	74.4	86	69.9	1	3	248	0.00	29.887 
08:55	74.6	74.6	74.6	85	69.8	1	2	248	0.00	29.884 
09:00	74.7	74.7	74.7	85	69.9	1	3	248	0.00	29.881 
09:05	75.1	75.1	75.0	85	70.3	0	2	248	0.00	29.884 
09:10	75.3	75.3	75.5	84	70.1	0	2	248	0.00	29.883 
09:15	75.4	75.4	75.8	83	69.9	1	3	248	0.00	29.884 
09:20	75.6	75.6	76.1	83	70.1	1	3	248	0.00	29.882 
09:25	75.8	75.8	76.5	82	69.9	1	2	248	0.00	29.882 
09:30	76.0	76.0	76.8	82	70.1	1	3	248	0.00	29.883 
09:35	76.0	76.0	76.8	82	70.1	0	2	248	0.00	29.883 
09:40	75.8	75.8	76.6	81	69.5	1	2	248	0.00	29.882 
09:45	75.8	75.8	76.5	82	69.9	0	2	270	0.00	29.881 
09:50	76.0	76.0	76.9	81	69.7	1	2	270	0.00	29.881 
09:55	76.3	76.3	77.4	81	70.0	1	2	270	0.00	29.881 
10:00	76.3	76.3	77.5	80	69.7	1	3	248	0.00	29.882 
10:05	76.0	76.0	77.0	80	69.4	0	2	248	0.00	29.882 
10:10	76.0	76.0	76.9	81	69.7	1	3	248	0.00	29.884 
10:15	76.1	76.1	77.1	80	69.5	0	1	248	0.00	29.882 
10:20	76.5	76.5	77.8	80	69.9	1	2	248	0.00	29.881 
10:25	76.7	76.7	78.1	79	69.7	1	3	248	0.00	29.881 
10:30	77.2	77.2	78.9	78	69.8	1	3	248	0.00	29.881 
10:35	77.4	77.4	79.3	78	70.0	1	3	270	0.00	29.881 
10:40	77.6	77.6	79.6	77	69.8	1	2	270	0.00	29.881 
10:45	77.6	77.6	79.6	77	69.8	0	2	270	0.00	29.881 
10:50	77.9	77.9	80.1	77	70.1	1	3	270	0.00	29.881 
10:55	78.6	78.6	81.2	76	70.4	1	3	270	0.00	29.880 
11:00	78.8	78.8	81.3	73	69.4	1	3	270	0.00	29.878 
11:05	78.6	78.6	81.1	74	69.6	1	3	270	0.00	29.879 
11:10	79.0	79.0	82.0	77	71.2	1	2	270	0.00	29.875 
11:15	80.1	80.1	83.2	71	69.8	1	4	270	0.00	29.869 
11:20	81.1	81.1	84.6	69	69.9	1	3	270	0.00	29.865 
11:25	81.1	81.1	84.5	68	69.5	1	3	270	0.00	29.865 
11:30	81.2	81.2	84.5	67	69.2	1	3	270	0.00	29.865 
11:35	80.7	80.7	83.4	65	67.8	2	4	270	0.00	29.865 
11:40	80.3	80.3	82.9	66	67.9	1	4	270	0.00	29.865 
11:45	80.3	80.3	83.2	68	68.8	1	4	270	0.00	29.865 
11:50	80.9	80.9	83.8	66	68.4	1	4	248	0.00	29.863 
11:55	81.4	81.4	84.3	64	68.0	2	5	270	0.00	29.863 
12:00	82.0	82.0	85.4	65	69.0	1	4	270	0.00	29.863 
12:05	82.4	82.4	85.8	64	69.0	1	3	270	0.00	29.865 
12:10	83.0	83.0	86.1	61	68.1	1	3	270	0.00	29.864 
12:15	83.2	83.2	86.2	60	67.8	2	5	248	0.00	29.867 
12:20	82.6	82.6	85.5	61	67.8	1	3	270	0.00	29.865 
12:25	83.2	83.2	86.9	63	69.3	1	3	248	0.00	29.861 
12:30	83.6	83.6	85.9	56	66.2	2	4	248	0.00	29.856 
12:35	83.4	83.4	86.5	60	68.0	2	5	270	0.00	29.855 
12:40	84.0	84.0	87.3	59	68.1	1	4	248	0.00	29.851 
12:45	84.5	84.5	87.5	57	67.6	2	4	270	0.00	29.850 
12:50	84.5	84.5	87.5	57	67.6	2	5	270	0.00	29.847 
12:55	84.9	84.9	88.2	57	67.9	2	5	248	0.00	29.846 
13:00	85.3	85.3	88.8	57	68.3	1	3	315	0.00	29.844 
13:05	85.1	85.1	87.7	54	66.6	1	3	248	0.00	29.842 
13:10	84.7	84.7	87.3	55	66.7	1	3	292	0.00	29.836 
13:15	85.1	85.1	87.4	53	66.0	2	4	270	0.00	29.834 
13:20	85.3	85.3	87.1	51	65.1	2	5	315	0.00	29.834 
13:25	85.1	85.1	86.6	50	64.3	2	5	338	0.00	29.834 
13:30	85.3	85.3	88.0	54	66.7	1	4	270	0.00	29.833 
13:35	85.3	85.3	87.7	53	66.2	2	3	270	0.00	29.832 
13:40	85.3	85.3	87.1	51	65.1	2	4	248	0.00	29.831 
13:45	85.7	85.7	87.4	50	64.9	2	4	270	0.00	29.831 
13:50	85.9	85.9	87.7	50	65.1	3	6	292	0.00	29.831 
13:55	86.3	86.3	87.8	48	64.3	3	5	270	0.00	29.829 
14:00	86.7	86.7	89.9	53	67.5	2	5	270	0.00	29.830 
14:05	85.1	85.1	87.7	54	66.6	1	5	0	0.00	29.831 
14:10	83.6	83.6	86.1	57	66.7	1	3	315	0.00	29.829 
14:15	83.0	83.0	85.5	58	66.7	1	4	315	0.00	29.829 
14:20	83.6	83.6	86.9	60	68.2	1	4	315	0.00	29.826 
14:25	83.8	83.8	85.5	53	64.8	2	5	292	0.00	29.822 
14:30	83.2	83.2	84.7	53	64.3	1	4	292	0.00	29.832 
14:35	83.0	83.0	84.9	55	65.1	1	9	270	0.00	29.831 
14:40	82.8	82.8	84.6	55	65.0	2	5	315	0.00	29.831 
14:45	82.2	82.2	83.6	54	63.9	2	4	270	0.00	29.832 
14:50	81.8	81.8	83.3	55	64.0	2	4	292	0.00	29.830 
14:55	81.8	81.8	83.5	56	64.5	2	6	315	0.00	29.826 
15:00	82.0	82.0	83.7	56	64.7	1	3	315	0.00	29.822 
15:05	83.2	83.2	84.9	54	64.8	2	4	248	0.00	29.820 
15:10	83.4	83.4	84.8	52	63.9	2	6	315	0.00	29.819 
15:15	83.4	83.4	84.4	50	62.8	2	4	270	0.00	29.820 
15:20	83.4	83.4	84.2	49	62.2	1	4	292	0.00	29.820 
15:25	83.6	83.6	84.2	48	61.8	2	4	315	0.00	29.819 
15:30	84.0	84.0	85.1	50	63.3	0	2	292	0.00	29.817 
15:35	83.8	83.8	84.7	49	62.6	2	5	315	0.00	29.817 
15:40	84.0	84.0	84.9	49	62.8	2	5	315	0.00	29.816 
15:45	83.8	83.8	84.5	48	62.0	2	5	292	0.00	29.817 
15:50	84.0	84.0	84.9	49	62.8	2	5	292	0.00	29.816 
15:55	84.3	84.3	85.5	50	63.6	2	4	315	0.00	29.814 
16:00	84.5	84.5	85.1	47	62.0	2	6	292	0.00	29.813 
16:05	84.1	84.1	84.6	47	61.7	2	4	315	0.00	29.813 
16:10	83.6	83.6	84.2	48	61.8	2	6	270	0.00	29.812 
16:15	83.6	83.6	84.2	48	61.8	2	4	292	0.00	29.813 
16:20	83.8	83.8	84.1	46	60.8	2	3	292	0.00	29.814 
16:25	84.0	84.0	84.3	46	61.0	1	3	292	0.00	29.816 
16:30	84.1	84.1	84.3	45	60.4	1	6	292	0.00	29.816 
16:35	84.0	84.0	84.1	45	60.3	2	5	270	0.00	29.817 
16:40	83.6	83.6	83.5	44	59.3	2	7	315	0.00	29.815 
16:45	82.6	82.6	83.3	49	61.5	1	3	315	0.00	29.817 
16:50	80.3	80.3	81.4	53	61.6	1	5	292	0.00	29.819 
16:55	79.2	79.2	80.6	56	62.1	1	3	315	0.00	29.821 
17:00	78.6	78.6	80.0	56	61.6	1	3	315	0.00	29.822 
17:05	79.0	79.0	80.3	55	61.4	2	6	338	0.00	29.820 
17:10	79.2	79.2	80.5	55	61.6	2	5	315	0.00	29.822 
17:15	79.6	79.6	80.6	52	60.4	2	4	292	0.00	29.821 
17:20	79.4	79.4	80.5	53	60.8	3	6	315	0.00	29.821 
17:25	79.6	79.6	80.7	53	60.9	2	5	292	0.00	29.821 
17:30	79.8	79.8	80.6	50	59.5	1	3	292	0.00	29.822 
17:35	79.9	79.9	80.7	50	59.6	1	3	338	0.00	29.821 
17:40	80.1	80.1	80.6	47	58.0	2	5	292	0.00	29.821 
17:45	79.9	79.9	80.5	48	58.4	1	2	315	0.00	29.822 
17:50	79.9	79.9	80.5	48	58.4	1	3	292	0.00	29.821 
17:55	80.3	80.3	80.7	46	57.6	2	6	292	0.00	29.821 
18:00	80.5	80.5	80.7	45	57.2	2	5	292	0.00	29.819 
18:05	80.5	80.5	80.6	44	56.6	2	6	292	0.00	29.818 
18:10	80.3	80.3	80.4	43	55.7	2	5	270	0.00	29.818 
18:15	80.1	80.1	80.3	44	56.2	1	4	292	0.00	29.819 
18:20	79.8	79.8	80.2	45	56.5	1	4	292	0.00	29.820 
18:25	79.8	79.8	80.2	45	56.5	1	4	292	0.00	29.820 
18:30	79.6	79.6	80.0	45	56.4	0	2	292	0.00	29.819 
18:35	79.2	79.2	79.8	46	56.6	1	2	292	0.00	29.821 
18:40	79.2	79.2	79.7	44	55.4	2	6	292	0.00	29.822 
18:45	79.2	79.2	79.8	46	56.6	1	3	292	0.00	29.823 
18:50	79.0	79.0	79.6	44	55.2	1	3	292	0.00	29.823 
18:55	78.8	78.8	79.5	45	55.6	1	3	292	0.00	29.824 
19:00	78.5	78.5	79.2	43	54.1	1	3	292	0.00	29.826 
19:05	77.9	77.9	78.8	43	53.6	2	5	292	0.00	29.825 
19:10	77.4	77.4	78.6	45	54.4	1	5	292	0.00	29.827 
19:15	76.8	76.8	78.3	45	53.8	0	2	315	0.00	29.829 
19:20	76.5	76.5	78.2	46	54.2	0	2	315	0.00	29.828 
19:25	76.1	76.1	78.0	46	53.8	1	3	292	0.00	29.835 
19:30	75.8	75.8	77.9	46	53.5	1	4	315	0.00	29.834 
19:35	75.6	75.6	77.8	46	53.3	1	3	292	0.00	29.833 
19:40	75.4	75.4	77.8	46	53.2	0	2	292	0.00	29.835 
19:45	75.3	75.3	77.7	47	53.7	0	2	292	0.00	29.835 
19:50	74.9	74.9	74.9	46	52.7	0	1	292	0.00	29.835 
19:55	74.6	74.6	74.6	47	53.0	0	2	292	0.00	29.836 
20:00	74.4	74.4	74.4	48	53.4	0	2	292	0.00	29.839 
20:05	74.0	74.0	74.0	48	53.0	0	1	292	0.00	29.838 
20:10	73.9	73.9	73.9	50	54.1	0	1	292	0.00	29.838 
20:15	73.5	73.5	73.5	50	53.7	0	0	---	0.00	29.838 
20:20	73.0	73.0	73.0	51	53.8	0	1	292	0.00	29.838 
20:25	72.8	72.8	72.8	50	53.1	0	1	292	0.00	29.838 
20:30	72.7	72.7	72.7	51	53.5	0	1	292	0.00	29.838 
20:35	72.3	72.3	72.3	52	53.7	0	1	292	0.00	29.839 
20:40	72.0	72.0	72.0	53	53.9	0	0	---	0.00	29.839 
20:45	71.6	71.6	71.6	54	54.1	0	0	---	0.00	29.839 
20:50	71.3	71.3	71.3	54	53.8	0	0	---	0.00	29.840 
20:55	70.9	70.9	70.9	55	53.9	0	0	---	0.00	29.841 
21:00	70.8	70.8	70.8	55	53.8	0	0	---	0.00	29.842 
21:05	70.4	70.4	70.4	56	53.9	0	0	---	0.00	29.844 
21:10	70.1	70.1	70.1	57	54.1	0	0	---	0.00	29.846 
21:15	69.6	69.6	69.6	58	54.2	0	0	---	0.00	29.850 
21:20	68.9	68.9	68.9	60	54.4	0	0	---	0.00	29.853 
21:25	68.6	68.6	68.6	61	54.6	0	0	---	0.00	29.854 
21:30	68.1	68.1	68.1	62	54.6	0	0	---	0.00	29.856 
21:35	67.8	67.8	67.8	62	54.3	0	0	---	0.00	29.855 
21:40	67.4	67.4	67.4	63	54.4	0	0	---	0.00	29.856 
21:45	67.1	67.1	67.1	64	54.5	0	0	---	0.00	29.858 
21:50	66.9	66.9	66.9	64	54.3	0	0	---	0.00	29.858 
21:55	66.6	66.6	66.6	65	54.5	0	0	---	0.00	29.859 
22:00	66.4	66.4	66.4	66	54.7	0	0	---	0.00	29.859 
22:05	66.3	66.3	66.3	66	54.6	0	0	---	0.00	29.856 
22:10	66.0	66.0	66.0	68	55.1	0	0	---	0.00	29.856 
22:15	65.6	65.6	65.6	68	54.7	0	0	---	0.00	29.854 
22:20	65.3	65.3	65.3	68	54.5	0	0	---	0.00	29.856 
22:25	65.0	65.0	65.0	69	54.6	0	0	---	0.00	29.856 
22:30	64.7	64.7	64.7	70	54.7	0	0	---	0.00	29.857 
22:35	64.3	64.3	64.3	71	54.7	0	0	---	0.00	29.859 
22:40	63.9	63.9	63.9	72	54.7	0	0	---	0.00	29.859 
22:45	63.5	63.5	63.5	73	54.7	0	0	---	0.00	29.859 
22:50	63.2	63.2	63.2	74	54.8	0	0	---	0.00	29.860 
22:55	62.9	62.9	62.9	75	54.8	0	0	---	0.00	29.861 
23:00	62.7	62.7	62.7	75	54.7	0	0	---	0.00	29.863 
23:05	62.4	62.4	62.4	76	54.7	0	0	---	0.00	29.862 
23:10	62.1	62.1	62.1	77	54.8	0	0	---	0.00	29.862 
23:15	61.8	61.8	61.8	78	54.9	0	0	---	0.00	29.866 
23:20	61.6	61.6	61.6	79	55.0	0	0	---	0.00	29.867 
23:25	61.3	61.3	61.3	79	54.7	0	0	---	0.00	29.870 
23:30	61.0	61.0	61.0	80	54.8	0	0	---	0.00	29.867 
23:35	60.9	60.9	60.9	81	55.0	0	0	---	0.00	29.865 
23:40	60.5	60.5	60.5	81	54.6	0	0	---	0.00	29.865 
23:45	60.4	60.4	60.4	82	54.9	0	0	---	0.00	29.866 
23:50	60.1	60.1	60.1	83	54.9	0	0	---	0.00	29.867 
23:55	59.9	59.9	59.9	83	54.7	0	0	---	0.00	29.867 

CoCoRaHS
IN-AL-39
A2 Web Hosting
Creative Commons License
GoDaddy
Look for:

loaded 2017-10-19 14:25:39 • last modified 2010-11-18 10:43:29
Privacy PolicyDisclaimer
• wx.awcolley.com is powered by PmWiki v.2002016 •
• all content (unless otherwise noted) © 2017 A W Colley